Time;durP1;ratioP1;P1;durP2;ratioP2;P2;SDS_P1;SDS_P2;PMS_P1;PMS_P2;Temp;Humidity;BMP_temperature;BMP_pressure;BME280_temperature;BME280_humidity;BME280_pressure;Samples;Min_cycle;Max_cycle;Signal;HPM_P1;HPM_P2
2023/06/30 00:01:39;;;;;;;9.35;3.20;;;15.50;99.90;;;;;;5075362;28;20522;-68
2023/06/30 00:04:06;;;;;;;11.02;3.17;;;15.40;99.90;;;;;;5075227;28;20109;-68
2023/06/30 00:06:32;;;;;;;7.55;2.28;;;15.40;99.90;;;;;;5075007;28;20115;-68
2023/06/30 00:08:58;;;;;;;9.07;2.78;;;15.40;99.90;;;;;;5074618;28;20036;-68
2023/06/30 00:11:24;;;;;;;8.50;3.10;;;15.30;99.90;;;;;;5074957;28;20036;-67
2023/06/30 00:13:55;;;;;;;7.75;2.50;;;15.40;99.90;;;;;;5075227;28;20038;-68
2023/06/30 00:16:20;;;;;;;9.05;2.45;;;15.40;99.90;;;;;;5074212;28;20039;-68
2023/06/30 00:18:46;;;;;;;11.60;3.25;;;15.10;99.90;;;;;;5074402;28;20403;-68
2023/06/30 00:21:13;;;;;;;6.80;2.97;;;15.10;99.90;;;;;;5074553;28;20039;-68
2023/06/30 00:23:38;;;;;;;7.93;2.70;;;15.10;99.90;;;;;;5074142;28;20036;-68
2023/06/30 00:26:04;;;;;;;8.13;2.42;;;;;;;;;;5092811;28;20112;-68
2023/06/30 00:28:30;;;;;;;5.78;2.28;;;;;;;;;;5092250;28;20036;-68
2023/06/30 00:30:56;;;;;;;8.50;2.50;;;;;;;;;;5073539;28;20419;-68
2023/06/30 00:33:22;;;;;;;6.47;2.53;;;15.10;99.90;;;;;;5093005;28;20032;-68
2023/06/30 00:35:47;;;;;;;9.93;2.67;;;15.10;99.90;;;;;;5074382;28;20052;-68
2023/06/30 00:38:13;;;;;;;11.82;3.05;;;14.90;99.90;;;;;;5092219;28;20047;-68
2023/06/30 00:40:39;;;;;;;6.60;2.67;;;;;;;;;;5074021;28;20074;-68
2023/06/30 00:43:05;;;;;;;9.50;2.63;;;;;;;;;;5092388;28;20180;-68
2023/06/30 00:45:31;;;;;;;6.63;2.70;;;;;;;;;;5074214;28;20135;-68
2023/06/30 00:47:56;;;;;;;7.35;2.72;;;14.80;99.90;;;;;;5073968;28;20043;-68
2023/06/30 00:50:22;;;;;;;7.90;2.60;;;14.90;99.90;;;;;;5074357;28;20062;-68
2023/06/30 00:52:49;;;;;;;8.07;2.85;;;14.70;99.90;;;;;;5092433;28;20042;-68
2023/06/30 00:55:16;;;;;;;12.57;3.05;;;14.70;99.90;;;;;;5074449;28;20380;-68
2023/06/30 00:57:42;;;;;;;7.28;2.90;;;14.90;99.90;;;;;;5073641;28;20158;-68
2023/06/30 01:00:11;;;;;;;10.02;2.75;;;14.80;99.90;;;;;;5073853;28;20051;-68
2023/06/30 01:02:45;;;;;;;7.85;2.78;;;14.60;99.90;;;;;;5074448;28;20036;-68
2023/06/30 01:05:24;;;;;;;10.70;2.45;;;14.90;99.90;;;;;;5073758;28;20047;-68
2023/06/30 01:08:16;;;;;;;7.82;2.53;;;14.70;99.90;;;;;;5073680;28;20036;-68
2023/06/30 01:10:43;;;;;;;8.23;2.40;;;14.70;99.90;;;;;;5073722;28;20081;-67
2023/06/30 01:13:11;;;;;;;7.30;3.20;;;14.80;99.90;;;;;;5073892;28;20036;-68
2023/06/30 01:15:37;;;;;;;9.52;3.50;;;14.80;99.90;;;;;;5092058;28;20040;-67
2023/06/30 01:18:04;;;;;;;7.53;2.95;;;14.90;99.90;;;;;;5056657;28;20046;-68
2023/06/30 01:20:33;;;;;;;7.13;2.33;;;14.80;99.90;;;;;;5091660;28;20079;-68
2023/06/30 01:23:10;;;;;;;9.73;2.60;;;14.70;99.90;;;;;;5073781;28;20055;-67
2023/06/30 01:25:36;;;;;;;7.60;2.97;;;14.90;99.90;;;;;;5073747;28;20040;-68
2023/06/30 01:28:02;;;;;;;11.35;2.72;;;14.90;99.90;;;;;;5073611;28;20043;-67
2023/06/30 01:30:29;;;;;;;8.68;3.03;;;14.70;99.90;;;;;;5073445;28;20068;-68
2023/06/30 01:32:56;;;;;;;9.00;2.50;;;15.00;99.90;;;;;;5091854;28;20047;-68
2023/06/30 01:35:22;;;;;;;11.30;2.78;;;14.70;99.90;;;;;;5091942;28;20087;-67
2023/06/30 01:37:48;;;;;;;8.38;3.33;;;14.80;99.90;;;;;;5073245;28;20050;-68
2023/06/30 01:40:15;;;;;;;9.10;2.70;;;14.70;99.90;;;;;;5091575;28;20028;-68
2023/06/30 01:42:40;;;;;;;7.18;2.95;;;14.70;99.90;;;;;;5073035;28;20040;-68
2023/06/30 01:45:08;;;;;;;6.70;2.50;;;14.70;99.90;;;;;;5073469;28;20104;-68
2023/06/30 01:47:34;;;;;;;10.15;2.63;;;14.70;99.90;;;;;;5091402;28;20457;-67
2023/06/30 01:50:00;;;;;;;10.15;2.65;;;14.80;99.90;;;;;;5056498;28;20044;-68
2023/06/30 01:52:25;;;;;;;6.72;3.05;;;14.70;99.90;;;;;;5073418;28;20123;-68
2023/06/30 01:54:51;;;;;;;5.10;2.40;;;14.60;99.90;;;;;;5073557;28;20526;-69
2023/06/30 01:57:17;;;;;;;10.38;2.67;;;14.50;99.90;;;;;;5073522;28;20044;-68
2023/06/30 01:59:43;;;;;;;5.38;3.03;;;14.40;99.90;;;;;;5072929;28;20041;-68
2023/06/30 02:02:08;;;;;;;5.70;2.28;;;14.70;99.90;;;;;;5073346;28;20036;-68
2023/06/30 02:04:34;;;;;;;6.70;2.78;;;14.60;99.90;;;;;;5073567;28;20047;-68
2023/06/30 02:07:00;;;;;;;8.07;3.00;;;14.50;99.90;;;;;;5073673;28;20035;-68
2023/06/30 02:09:25;;;;;;;3.92;2.65;;;14.70;99.90;;;;;;5073232;28;20491;-67
2023/06/30 02:11:51;;;;;;;8.85;2.67;;;14.50;99.90;;;;;;5091544;28;20121;-68
2023/06/30 02:14:16;;;;;;;9.20;2.55;;;14.60;99.90;;;;;;5073232;28;20043;-68
2023/06/30 02:16:42;;;;;;;8.00;2.63;;;15.00;99.90;;;;;;5091320;28;20047;-67
2023/06/30 02:19:08;;;;;;;15.82;2.88;;;14.60;99.90;;;;;;5072537;28;20145;-68
2023/06/30 02:21:33;;;;;;;7.95;2.28;;;14.60;99.90;;;;;;5073283;28;20483;-68
2023/06/30 02:23:59;;;;;;;8.02;2.95;;;14.70;99.90;;;;;;5072525;28;20075;-68
2023/06/30 02:26:24;;;;;;;9.63;3.33;;;14.30;99.90;;;;;;5073156;28;20084;-67
2023/06/30 02:28:50;;;;;;;7.03;2.28;;;14.50;99.90;;;;;;5071464;28;20040;-68
2023/06/30 02:31:16;;;;;;;12.70;2.80;;;14.40;99.90;;;;;;5073119;28;20040;-68
2023/06/30 02:33:41;;;;;;;8.75;2.85;;;14.50;99.90;;;;;;5073107;28;20502;-68
2023/06/30 02:36:07;;;;;;;7.55;2.60;;;14.30;99.90;;;;;;5073107;28;20093;-68
2023/06/30 02:38:33;;;;;;;5.38;2.47;;;14.50;99.90;;;;;;5072337;28;20044;-67
2023/06/30 02:40:58;;;;;;;6.75;2.70;;;14.20;99.90;;;;;;5072776;28;20051;-68
2023/06/30 02:43:24;;;;;;;6.10;2.55;;;14.40;99.90;;;;;;5091027;28;20032;-67
2023/06/30 02:45:51;;;;;;;8.13;2.90;;;14.30;99.90;;;;;;5090715;28;20059;-66
2023/06/30 02:48:17;;;;;;;5.28;3.03;;;14.40;99.90;;;;;;5090760;28;20681;-67
2023/06/30 02:50:43;;;;;;;10.20;3.33;;;14.30;99.90;;;;;;5090919;28;20036;-67
2023/06/30 02:53:08;;;;;;;6.45;2.45;;;14.30;99.90;;;;;;5091524;28;20043;-67
2023/06/30 02:55:35;;;;;;;5.43;2.33;;;14.30;99.90;;;;;;5094762;28;20411;-68
2023/06/30 02:58:01;;;;;;;7.18;2.40;;;14.10;99.90;;;;;;5076128;28;20051;-67
2023/06/30 03:00:26;;;;;;;7.38;2.63;;;14.00;99.90;;;;;;5076168;28;20044;-68
2023/06/30 03:02:52;;;;;;;7.57;2.60;;;14.30;99.90;;;;;;5094504;28;20028;-65
2023/06/30 03:05:18;;;;;;;4.18;2.38;;;14.00;99.90;;;;;;5076193;28;20457;-68
2023/06/30 03:07:43;;;;;;;8.98;2.78;;;14.00;99.90;;;;;;5076165;28;20039;-66
2023/06/30 03:10:09;;;;;;;6.80;2.70;;;13.80;99.90;;;;;;5094192;28;20484;-67
2023/06/30 03:12:35;;;;;;;7.13;2.65;;;13.90;99.90;;;;;;5076538;28;20073;-67
2023/06/30 03:15:00;;;;;;;5.53;2.53;;;13.90;99.90;;;;;;5076350;28;20036;-67
2023/06/30 03:17:26;;;;;;;7.60;2.90;;;13.80;99.90;;;;;;5076065;28;20043;-68
2023/06/30 03:19:52;;;;;;;5.30;2.47;;;13.90;99.90;;;;;;5093779;28;20036;-68
2023/06/30 03:22:17;;;;;;;5.45;2.58;;;14.10;99.90;;;;;;5076651;28;20044;-67
2023/06/30 03:24:43;;;;;;;7.97;2.92;;;13.90;99.90;;;;;;5076024;28;20541;-68
2023/06/30 03:27:08;;;;;;;7.75;3.20;;;14.00;99.90;;;;;;5094214;28;20419;-68
2023/06/30 03:29:34;;;;;;;9.23;3.28;;;13.70;99.90;;;;;;5075242;28;20043;-67
2023/06/30 03:32:00;;;;;;;6.22;3.10;;;13.70;99.90;;;;;;5093949;28;20047;-68
2023/06/30 03:34:25;;;;;;;7.45;2.55;;;13.80;99.90;;;;;;5075787;28;20048;-68
2023/06/30 03:36:51;;;;;;;6.55;2.97;;;13.60;99.90;;;;;;5094141;28;20044;-68
2023/06/30 03:39:16;;;;;;;7.22;2.85;;;13.70;99.90;;;;;;5093311;28;20427;-66
2023/06/30 03:41:42;;;;;;;5.97;3.08;;;13.60;99.90;;;;;;5075665;28;20115;-67
2023/06/30 03:44:08;;;;;;;9.48;3.20;;;13.70;99.90;;;;;;5075561;28;20123;-67
2023/06/30 03:46:34;;;;;;;7.82;3.08;;;13.60;99.90;;;;;;5075664;28;20032;-67
2023/06/30 03:48:59;;;;;;;8.65;3.40;;;13.70;99.90;;;;;;5075185;28;20040;-68
2023/06/30 03:51:25;;;;;;;10.35;3.05;;;13.70;99.90;;;;;;5093778;28;20407;-67
2023/06/30 03:53:51;;;;;;;11.48;3.67;;;13.70;99.90;;;;;;5093969;28;20039;-68
2023/06/30 03:56:16;;;;;;;7.70;2.58;;;13.70;99.90;;;;;;5075928;28;20039;-68
2023/06/30 03:58:42;;;;;;;6.78;2.92;;;13.50;99.90;;;;;;5075190;28;20039;-67
2023/06/30 04:01:07;;;;;;;10.15;3.20;;;14.00;99.90;;;;;;5093225;28;20047;-68
2023/06/30 04:03:33;;;;;;;5.10;3.20;;;14.20;99.90;;;;;;5075372;28;20545;-67
2023/06/30 04:05:59;;;;;;;6.38;2.92;;;13.40;99.90;;;;;;5075103;28;20047;-68
2023/06/30 04:08:25;;;;;;;4.20;2.63;;;13.70;99.90;;;;;;5092990;28;20039;-68
2023/06/30 04:10:50;;;;;;;8.85;2.92;;;13.70;99.90;;;;;;5074984;28;20160;-67
2023/06/30 04:13:16;;;;;;;10.80;2.95;;;13.90;99.90;;;;;;5093316;28;20035;-67
2023/06/30 04:15:42;;;;;;;9.68;3.40;;;13.90;99.90;;;;;;5075202;28;20048;-68
2023/06/30 04:18:08;;;;;;;10.65;3.45;;;14.00;99.90;;;;;;5092768;28;20039;-68
2023/06/30 04:20:33;;;;;;;10.85;3.58;;;13.80;99.90;;;;;;5074699;28;20093;-68
2023/06/30 04:22:59;;;;;;;11.80;3.40;;;14.10;99.90;;;;;;5058274;28;20411;-67
2023/06/30 04:25:25;;;;;;;5.30;2.80;;;13.90;99.90;;;;;;5075084;28;20051;-67
2023/06/30 04:27:50;;;;;;;14.02;4.15;;;14.00;99.90;;;;;;5092504;28;20522;-68
2023/06/30 04:30:16;;;;;;;13.40;3.83;;;14.30;99.90;;;;;;5074800;28;20048;-67
2023/06/30 04:32:42;;;;;;;10.00;3.13;;;14.30;99.90;;;;;;5074966;28;20036;-67
2023/06/30 04:35:08;;;;;;;6.28;3.00;;;14.20;99.90;;;;;;5093152;28;20040;-68
2023/06/30 04:37:40;;;;;;;10.20;4.07;;;14.40;99.90;;;;;;5092887;28;20536;-67
2023/06/30 04:40:08;;;;;;;7.68;3.10;;;14.30;99.90;;;;;;5092550;28;20500;-67
2023/06/30 04:42:33;;;;;;;10.05;3.47;;;14.50;99.90;;;;;;5074573;28;20081;-67
2023/06/30 04:45:00;;;;;;;6.30;3.05;;;14.40;99.90;;;;;;5092743;28;20454;-68
2023/06/30 04:47:27;;;;;;;9.93;3.47;;;14.60;99.90;;;;;;5092628;28;20381;-67
2023/06/30 04:49:53;;;;;;;7.85;4.07;;;14.70;99.90;;;;;;5091734;28;20036;-67
2023/06/30 04:52:19;;;;;;;8.25;3.17;;;14.90;99.90;;;;;;5074510;28;20058;-67
2023/06/30 04:54:45;;;;;;;7.93;3.30;;;14.80;99.90;;;;;;5074278;28;20043;-67
2023/06/30 04:57:10;;;;;;;8.95;3.83;;;14.90;99.90;;;;;;5074495;28;20126;-67
2023/06/30 04:59:36;;;;;;;7.88;3.03;;;14.90;99.90;;;;;;5073490;28;20040;-67
2023/06/30 05:02:02;;;;;;;6.30;2.70;;;15.60;99.90;;;;;;5073933;28;20036;-67
2023/06/30 05:04:27;;;;;;;5.93;2.80;;;15.10;99.90;;;;;;5073999;28;20047;-68
2023/06/30 05:06:53;;;;;;;6.88;3.28;;;15.00;99.90;;;;;;5092365;28;20564;-67
2023/06/30 05:09:19;;;;;;;8.43;3.67;;;15.20;99.90;;;;;;5091559;28;20040;-68
2023/06/30 05:11:45;;;;;;;11.30;3.47;;;15.20;99.90;;;;;;5074075;28;20439;-68
2023/06/30 05:14:16;;;;;;;8.15;3.83;;;15.50;99.90;;;;;;5073448;28;20453;-67
2023/06/30 05:16:42;;;;;;;6.07;2.85;;;15.40;99.90;;;;;;5056316;28;20104;-67
2023/06/30 05:19:08;;;;;;;6.82;2.60;;;15.50;99.90;;;;;;5072911;28;20028;-67
2023/06/30 05:21:33;;;;;;;6.28;2.80;;;15.60;99.90;;;;;;5072334;28;20028;-67
2023/06/30 05:23:59;;;;;;;6.20;3.03;;;15.50;99.90;;;;;;5073440;28;20502;-67
2023/06/30 05:26:24;;;;;;;9.90;4.35;;;15.60;99.90;;;;;;5073258;28;20040;-68
2023/06/30 05:28:50;;;;;;;5.20;3.10;;;16.70;99.90;;;;;;5073034;28;20590;-67
2023/06/30 05:31:16;;;;;;;9.30;2.60;;;16.10;99.90;;;;;;5073434;28;20035;-67
2023/06/30 05:33:41;;;;;;;11.63;2.53;;;15.90;99.90;;;;;;5091479;28;20111;-67
2023/06/30 05:36:07;;;;;;;6.78;2.55;;;16.10;99.90;;;;;;5079733;28;20040;-67
2023/06/30 05:38:32;;;;;;;9.35;3.00;;;16.20;99.90;;;;;;5049827;28;20672;-67
2023/06/30 05:40:58;;;;;;;10.10;3.15;;;16.00;99.90;;;;;;5062098;28;20044;-67
2023/06/30 05:43:24;;;;;;;8.55;2.92;;;16.20;99.90;;;;;;5086821;28;20059;-67
2023/06/30 05:45:50;;;;;;;11.50;3.63;;;16.20;99.90;;;;;;5077479;28;20039;-68
2023/06/30 05:48:16;;;;;;;5.97;2.25;;;16.70;99.90;;;;;;5066127;28;20583;-67
2023/06/30 05:50:42;;;;;;;6.90;2.30;;;;;;;;;;5066895;28;20063;-67
2023/06/30 05:53:08;;;;;;;9.57;2.60;;;16.80;99.90;;;;;;5087431;28;20052;-67
2023/06/30 05:55:34;;;;;;;9.50;2.67;;;16.60;99.90;;;;;;5059907;28;20728;-67
2023/06/30 05:58:00;;;;;;;8.82;2.25;;;17.00;99.90;;;;;;5083731;28;20047;-67
2023/06/30 06:00:25;;;;;;;5.35;1.90;;;16.90;99.90;;;;;;5068979;28;20079;-68
2023/06/30 06:02:51;;;;;;;5.47;1.70;;;17.00;99.90;;;;;;5068829;28;20115;-68
2023/06/30 06:05:17;;;;;;;8.20;2.03;;;17.30;99.90;;;;;;5068614;28;20581;-68
2023/06/30 06:07:42;;;;;;;9.18;2.00;;;17.20;99.90;;;;;;5061970;28;20032;-68
2023/06/30 06:10:08;;;;;;;5.72;1.85;;;17.20;99.90;;;;;;5060585;28;20044;-67
2023/06/30 06:12:34;;;;;;;10.70;2.10;;;17.20;99.90;;;;;;5045802;28;20036;-65
2023/06/30 06:15:00;;;;;;;6.15;2.22;;;17.40;99.90;;;;;;5077071;28;20097;-68
2023/06/30 06:17:26;;;;;;;6.95;2.17;;;17.60;99.90;;;;;;5077728;28;20041;-68
2023/06/30 06:19:52;;;;;;;8.18;2.35;;;17.60;99.90;;;;;;5082630;28;20044;-68
2023/06/30 06:22:17;;;;;;;9.23;3.67;;;17.60;99.90;;;;;;5067206;28;20035;-66
2023/06/30 06:24:43;;;;;;;14.73;2.58;;;17.70;99.90;;;;;;5074421;28;20090;-68
2023/06/30 06:27:08;;;;;;;6.43;2.40;;;17.80;99.90;;;;;;5078397;28;20128;-68
2023/06/30 06:29:34;;;;;;;6.40;1.80;;;17.80;99.90;;;;;;5090127;28;20190;-68
2023/06/30 06:32:00;;;;;;;10.80;2.90;;;17.70;99.90;;;;;;5067174;28;20529;-68
2023/06/30 06:34:25;;;;;;;14.95;2.65;;;17.80;99.90;;;;;;5074902;28;20032;-68
2023/06/30 06:36:51;;;;;;;7.00;1.77;;;18.20;99.90;;;;;;5095182;28;20113;-69
2023/06/30 06:39:18;;;;;;;6.15;2.40;;;17.50;99.90;;;;;;5076500;28;20036;-67
2023/06/30 06:41:44;;;;;;;10.23;3.03;;;17.80;99.90;;;;;;5076920;28;20138;-69
2023/06/30 06:44:10;;;;;;;8.05;2.38;;;18.10;99.90;;;;;;5095199;28;20036;-68
2023/06/30 06:46:36;;;;;;;5.55;1.70;;;18.10;99.90;;;;;;5094393;28;20093;-69
2023/06/30 06:49:02;;;;;;;7.43;2.22;;;18.00;99.90;;;;;;5076401;28;20093;-69
2023/06/30 06:51:27;;;;;;;10.10;2.33;;;18.30;99.90;;;;;;5076436;28;20041;-69
2023/06/30 06:53:53;;;;;;;15.43;2.38;;;17.90;99.90;;;;;;5076492;28;20396;-69
2023/06/30 06:56:19;;;;;;;6.38;1.70;;;18.10;99.90;;;;;;5076792;28;20048;-69
2023/06/30 06:58:45;;;;;;;5.88;1.73;;;18.50;99.90;;;;;;5076073;28;20047;-69
2023/06/30 07:01:11;;;;;;;11.45;2.17;;;18.20;99.90;;;;;;5076543;28;20096;-69
2023/06/30 07:03:37;;;;;;;9.68;1.67;;;18.60;99.90;;;;;;5094424;28;20055;-69
2023/06/30 07:06:03;;;;;;;2.50;1.38;;;18.50;99.90;;;;;;5076770;28;20069;-69
2023/06/30 07:08:34;;;;;;;9.75;2.25;;;18.60;99.90;;;;;;5094269;28;20495;-69
2023/06/30 07:11:01;;;;;;;16.45;2.13;;;18.50;99.90;;;;;;5076059;28;20050;-68
2023/06/30 07:13:26;;;;;;;8.93;1.60;;;18.40;99.90;;;;;;5076506;28;20043;-69
2023/06/30 07:15:52;;;;;;;5.47;1.42;;;18.40;99.90;;;;;;5076272;28;20040;-69
2023/06/30 07:18:20;;;;;;;9.38;1.90;;;18.60;99.90;;;;;;5059244;28;20369;-68
2023/06/30 07:20:47;;;;;;;7.50;2.15;;;18.60;99.90;;;;;;5075832;28;20043;-69
2023/06/30 07:23:13;;;;;;;6.78;1.75;;;18.30;99.90;;;;;;5076331;28;20039;-68
2023/06/30 07:25:38;;;;;;;6.68;1.88;;;18.20;99.90;;;;;;5094129;28;20039;-69
2023/06/30 07:28:04;;;;;;;7.13;2.25;;;18.30;99.90;;;;;;5075724;28;20047;-69
2023/06/30 07:30:30;;;;;;;6.78;1.40;;;18.10;99.90;;;;;;5075803;28;20028;-69
2023/06/30 07:32:55;;;;;;;7.20;2.00;;;18.30;99.90;;;;;;5094307;28;20085;-69
2023/06/30 07:35:22;;;;;;;6.60;1.58;;;18.50;99.90;;;;;;5094049;28;20036;-69
2023/06/30 07:37:49;;;;;;;7.40;1.70;;;19.20;99.90;;;;;;5057427;28;20051;-69
2023/06/30 07:40:15;;;;;;;3.47;1.42;;;18.40;99.90;;;;;;5084298;28;20049;-68
2023/06/30 07:42:42;;;;;;;3.72;1.30;;;18.40;99.90;;;;;;5063815;28;20048;-69
2023/06/30 07:45:17;;;;;;;3.28;1.50;;;18.70;99.90;;;;;;5057810;28;20036;-68
2023/06/30 07:47:45;;;;;;;4.15;1.60;;;19.00;99.90;;;;;;5041973;28;20036;-68
2023/06/30 07:50:13;;;;;;;5.57;1.65;;;18.70;99.90;;;;;;5079477;28;20072;-70
2023/06/30 07:52:43;;;;;;;4.97;1.30;;;18.60;99.90;;;;;;5062581;28;20036;-70
2023/06/30 07:55:10;;;;;;;4.00;1.02;;;19.40;99.90;;;;;;5070777;28;20115;-71
2023/06/30 07:57:36;;;;;;;9.25;2.20;;;19.00;99.90;;;;;;5071445;28;20395;-70
2023/06/30 08:00:03;;;;;;;7.22;1.50;;;19.40;99.90;;;;;;5070971;28;20039;-69
2023/06/30 08:02:28;;;;;;;4.22;1.65;;;19.60;99.90;;;;;;5071018;28;20123;-69
2023/06/30 08:04:54;;;;;;;13.85;1.80;;;20.00;99.90;;;;;;5069465;28;20131;-67
2023/06/30 08:07:20;;;;;;;4.78;1.40;;;20.20;99.90;;;;;;5078437;28;20040;-69
2023/06/30 08:09:46;;;;;;;4.10;1.73;;;19.90;99.90;;;;;;5071623;28;20036;-69
2023/06/30 08:12:11;;;;;;;3.58;1.40;;;19.70;99.90;;;;;;5074051;28;20032;-69
2023/06/30 08:14:37;;;;;;;5.45;1.35;;;19.90;99.90;;;;;;5074672;28;20442;-69
2023/06/30 08:17:03;;;;;;;3.97;1.17;;;20.00;99.90;;;;;;5092858;28;20036;-69
2023/06/30 08:19:29;;;;;;;5.47;1.40;;;20.10;99.90;;;;;;5073893;28;20036;-69
2023/06/30 08:21:54;;;;;;;6.93;1.77;;;20.20;99.90;;;;;;5069045;28;20435;-69
2023/06/30 08:24:20;;;;;;;2.95;1.25;;;19.40;99.90;;;;;;5073613;28;20082;-69
2023/06/30 08:26:47;;;;;;;3.58;1.40;;;19.40;99.90;;;;;;5075845;28;20479;-69
2023/06/30 08:29:13;;;;;;;6.68;1.52;;;19.50;99.90;;;;;;5053206;28;20075;-69
2023/06/30 08:31:40;;;;;;;4.35;1.65;;;19.90;99.90;;;;;;5053883;28;20044;-69
2023/06/30 08:34:08;;;;;;;7.13;2.25;;;20.00;99.90;;;;;;5071277;28;20082;-69
2023/06/30 08:36:34;;;;;;;3.55;1.48;;;20.00;99.90;;;;;;5054537;28;20044;-69
2023/06/30 08:39:00;;;;;;;3.65;1.33;;;20.30;99.90;;;;;;5071871;28;20040;-69
2023/06/30 08:41:27;;;;;;;8.63;1.33;;;20.50;99.90;;;;;;5054669;28;20044;-69
2023/06/30 08:43:54;;;;;;;8.45;1.33;;;20.50;99.90;;;;;;5071116;28;20507;-69
2023/06/30 08:46:22;;;;;;;4.45;1.50;;;19.80;99.90;;;;;;5072464;28;20488;-69
2023/06/30 08:48:49;;;;;;;9.15;1.48;;;20.10;99.90;;;;;;5054068;28;20032;-69
2023/06/30 08:51:16;;;;;;;3.03;0.93;;;20.10;99.90;;;;;;5053455;28;20241;-70
2023/06/30 08:53:42;;;;;;;6.50;1.45;;;20.40;99.90;;;;;;5054131;28;20120;-69
2023/06/30 08:56:08;;;;;;;6.05;1.20;;;20.20;99.90;;;;;;5054493;28;20119;-69
2023/06/30 08:58:34;;;;;;;6.80;1.33;;;20.30;99.90;;;;;;5054261;28;20115;-69
2023/06/30 09:01:00;;;;;;;3.03;0.93;;;20.70;99.90;;;;;;5037262;28;20572;-69
2023/06/30 09:03:27;;;;;;;6.00;1.40;;;20.40;99.90;;;;;;5054151;28;20093;-69
2023/06/30 09:05:55;;;;;;;4.43;1.35;;;20.80;99.90;;;;;;5053966;28;20040;-70
2023/06/30 09:08:23;;;;;;;3.88;1.02;;;20.80;99.90;;;;;;5053529;28;20048;-69
2023/06/30 09:10:50;;;;;;;4.82;1.40;;;20.70;99.90;;;;;;5053841;28;20040;-69
2023/06/30 09:13:19;;;;;;;4.57;1.60;;;20.10;99.90;;;;;;5054036;28;20119;-69
2023/06/30 09:15:45;;;;;;;4.97;1.27;;;20.50;99.90;;;;;;5053939;28;20052;-70
2023/06/30 09:18:12;;;;;;;5.68;1.40;;;20.60;99.90;;;;;;5070172;28;20059;-69
2023/06/30 09:20:38;;;;;;;6.25;1.50;;;21.00;99.90;;;;;;5053795;28;20431;-69
2023/06/30 09:23:06;;;;;;;3.78;1.20;;;21.00;99.90;;;;;;5054391;28;20037;-69
2023/06/30 09:25:35;;;;;;;8.20;1.40;;;21.00;99.90;;;;;;5071679;28;20045;-70
2023/06/30 09:28:10;;;;;;;5.22;1.30;;;21.20;99.90;;;;;;5036852;28;20045;-70
2023/06/30 09:30:38;;;;;;;4.72;1.20;;;20.70;99.90;;;;;;5052604;28;20048;-69
2023/06/30 09:33:06;;;;;;;8.95;1.27;;;21.00;99.90;;;;;;5037174;28;20129;-70
2023/06/30 09:35:38;;;;;;;3.17;1.08;;;21.40;99.90;;;;;;5053664;28;20044;-69
2023/06/30 09:38:16;;;;;;;2.60;1.05;;;21.50;99.90;;;;;;5053381;28;20040;-69
2023/06/30 09:40:49;;;;;;;5.70;1.40;;;21.30;99.90;;;;;;5053388;28;20044;-69
2023/06/30 09:43:16;;;;;;;4.55;1.60;;;21.30;99.90;;;;;;5053917;28;20408;-69
2023/06/30 09:45:44;;;;;;;3.33;1.15;;;21.60;99.90;;;;;;5053626;28;20424;-69
2023/06/30 09:48:13;;;;;;;4.00;1.40;;;21.70;99.90;;;;;;5070089;28;20079;-69
2023/06/30 09:50:42;;;;;;;3.85;1.60;;;21.50;99.90;;;;;;5053053;28;20040;-69
2023/06/30 09:53:10;;;;;;;6.03;1.48;;;21.50;99.90;;;;;;5053808;28;20063;-69
2023/06/30 09:55:48;;;;;;;5.35;1.52;;;21.50;99.90;;;;;;5053799;28;20103;-69
2023/06/30 09:58:15;;;;;;;4.43;1.63;;;21.30;99.90;;;;;;5036425;28;20045;-69
2023/06/30 10:00:41;;;;;;;5.07;1.60;;;21.30;99.90;;;;;;5053420;28;20048;-69
2023/06/30 10:03:08;;;;;;;5.00;2.17;;;21.00;99.90;;;;;;5039015;28;20071;-69
2023/06/30 10:05:35;;;;;;;4.18;1.70;;;20.80;99.90;;;;;;5057468;28;20076;-69
2023/06/30 10:08:02;;;;;;;3.83;1.30;;;21.30;99.90;;;;;;5057243;28;20383;-69
2023/06/30 10:10:28;;;;;;;3.55;0.98;;;21.60;99.90;;;;;;5075209;28;20036;-69
2023/06/30 10:12:56;;;;;;;4.45;1.40;;;21.80;99.90;;;;;;5057290;28;20036;-69
2023/06/30 10:15:23;;;;;;;3.20;1.38;;;21.80;99.90;;;;;;5057324;28;20550;-69
2023/06/30 10:17:48;;;;;;;4.55;1.38;;;21.20;99.90;;;;;;5040511;28;20048;-69
2023/06/30 10:20:15;;;;;;;4.07;1.40;;;21.20;99.90;;;;;;5057096;28;20047;-69
2023/06/30 10:22:42;;;;;;;4.88;1.40;;;21.10;99.90;;;;;;5075497;28;20036;-69
2023/06/30 10:25:10;;;;;;;2.38;1.10;;;21.20;99.90;;;;;;5057531;28;20043;-69
2023/06/30 10:27:37;;;;;;;1.70;1.00;;;21.60;99.90;;;;;;5074177;28;20055;-69
2023/06/30 10:30:03;;;;;;;3.40;1.75;;;22.10;99.90;;;;;;5057353;28;20041;-69
2023/06/30 10:32:28;;;;;;;4.45;1.80;;;22.20;99.90;;;;;;5057000;28;20506;-70
2023/06/30 10:34:55;;;;;;;3.03;1.35;;;23.00;99.90;;;;;;5074879;28;20047;-68
2023/06/30 10:37:21;;;;;;;4.05;1.50;;;22.50;99.90;;;;;;5040271;28;20107;-68
2023/06/30 10:39:47;;;;;;;4.82;1.42;;;22.00;99.90;;;;;;5056265;28;20044;-69
2023/06/30 10:42:15;;;;;;;3.33;1.20;;;22.10;99.90;;;;;;5057032;28;20534;-69
2023/06/30 10:44:45;;;;;;;2.90;1.27;;;22.40;99.90;;;;;;5056790;28;20041;-68
2023/06/30 10:47:12;;;;;;;4.40;1.75;;;21.90;99.90;;;;;;5073501;28;20029;-68
2023/06/30 10:49:40;;;;;;;2.28;1.30;;;21.80;99.90;;;;;;5072740;28;20052;-69
2023/06/30 10:52:11;;;;;;;3.97;1.52;;;21.40;99.90;;;;;;5073226;28;20040;-68
2023/06/30 10:54:40;;;;;;;3.63;1.30;;;22.00;99.90;;;;;;5056548;28;20043;-69
2023/06/30 10:57:17;;;;;;;4.60;1.48;;;22.10;99.90;;;;;;5056546;28;20072;-69
2023/06/30 10:59:43;;;;;;;6.70;1.60;;;22.50;99.90;;;;;;5072595;28;20043;-69
2023/06/30 11:02:18;;;;;;;6.43;1.70;;;22.80;99.90;;;;;;5056366;28;20075;-69
2023/06/30 11:04:46;;;;;;;4.93;1.33;;;22.30;99.90;;;;;;5074475;28;20422;-69
2023/06/30 11:07:29;;;;;;;3.90;1.70;;;22.20;99.90;;;;;;5073041;28;20087;-69
2023/06/30 11:09:59;;;;;;;6.60;2.30;;;22.60;99.90;;;;;;5072608;28;20067;-69
2023/06/30 11:12:27;;;;;;;2.80;1.40;;;22.70;99.90;;;;;;5056250;28;20047;-69
2023/06/30 11:14:55;;;;;;;4.43;1.30;;;23.10;99.90;;;;;;5055211;28;20048;-69
2023/06/30 11:17:21;;;;;;;6.63;1.85;;;23.30;99.90;;;;;;5074618;28;20047;-69
2023/06/30 11:20:12;;;;;;;2.08;1.20;;;22.70;99.90;;;;;;5072258;28;20037;-69
2023/06/30 11:22:41;;;;;;;1.98;1.20;;;22.30;99.70;;;;;;5056037;28;20055;-69
2023/06/30 11:25:13;;;;;;;2.63;1.35;;;22.10;99.90;;;;;;5056166;28;20064;-69
2023/06/30 11:27:39;;;;;;;4.28;1.67;;;22.20;99.90;;;;;;5055636;28;20040;-68
2023/06/30 11:30:06;;;;;;;5.65;1.60;;;22.30;99.90;;;;;;5072442;28;20507;-69
2023/06/30 11:32:33;;;;;;;3.95;1.40;;;22.40;99.90;;;;;;5054881;28;20077;-69
2023/06/30 11:35:07;;;;;;;6.30;1.70;;;22.90;99.90;;;;;;5055717;28;20075;-69
2023/06/30 11:37:36;;;;;;;2.72;1.45;;;22.50;99.80;;;;;;5056107;28;20040;-69
2023/06/30 11:40:06;;;;;;;4.60;1.52;;;22.80;99.60;;;;;;5073250;28;20570;-70
2023/06/30 11:42:32;;;;;;;6.88;1.80;;;23.00;99.60;;;;;;5072388;28;20048;-69
2023/06/30 11:44:58;;;;;;;4.80;1.40;;;22.90;99.90;;;;;;5055583;28;20051;-69
2023/06/30 11:47:23;;;;;;;4.80;1.40;;;22.80;99.00;;;;;;5073635;28;20036;-69
2023/06/30 11:49:50;;;;;;;5.93;2.10;;;23.10;99.40;;;;;;5054994;28;20121;-70
2023/06/30 11:52:18;;;;;;;4.85;1.85;;;23.40;99.40;;;;;;5055537;28;20043;-70
2023/06/30 11:54:43;;;;;;;5.15;1.30;;;23.80;99.40;;;;;;5055430;28;20102;-71
2023/06/30 11:57:09;;;;;;;5.68;1.55;;;24.10;99.90;;;;;;5055849;28;20040;-70
2023/06/30 11:59:35;;;;;;;3.15;1.25;;;23.50;99.20;;;;;;5054803;28;20089;-71
2023/06/30 12:02:03;;;;;;;4.70;2.05;;;23.00;99.30;;;;;;5073080;28;20075;-70
2023/06/30 12:04:35;;;;;;;4.93;1.45;;;22.80;99.40;;;;;;5071908;28;20040;-70
2023/06/30 12:07:05;;;;;;;4.50;1.55;;;22.80;99.90;;;;;;5055421;28;20032;-70
2023/06/30 12:09:34;;;;;;;6.43;2.05;;;22.80;99.90;;;;;;5038309;28;20393;-70
2023/06/30 12:12:00;;;;;;;6.18;2.10;;;22.50;99.90;;;;;;5055157;28;20036;-70
2023/06/30 12:14:26;;;;;;;4.32;1.95;;;22.50;99.90;;;;;;5054989;28;20128;-70
2023/06/30 12:16:53;;;;;;;5.90;1.95;;;22.80;99.90;;;;;;5055087;28;20492;-70
2023/06/30 12:19:27;;;;;;;3.35;1.88;;;22.90;99.90;;;;;;5054595;28;20487;-68
2023/06/30 12:21:56;;;;;;;6.53;1.55;;;23.20;99.90;;;;;;5054790;28;20082;-70
2023/06/30 12:24:23;;;;;;;5.93;1.83;;;23.00;98.80;;;;;;5054762;28;20039;-70
2023/06/30 12:26:50;;;;;;;4.80;2.40;;;22.80;99.30;;;;;;5054739;28;20076;-70
2023/06/30 12:29:17;;;;;;;4.80;1.92;;;22.90;99.90;;;;;;5054419;28;20519;-70
2023/06/30 12:31:44;;;;;;;6.95;1.98;;;22.80;99.90;;;;;;5054709;28;20091;-70
2023/06/30 12:34:10;;;;;;;6.00;1.88;;;22.90;99.90;;;;;;5072465;28;20500;-70
2023/06/30 12:36:36;;;;;;;5.55;1.90;;;22.50;99.90;;;;;;5054731;28;20051;-70
2023/06/30 12:39:02;;;;;;;3.78;1.27;;;22.40;99.90;;;;;;5072079;28;20036;-70
2023/06/30 12:41:27;;;;;;;2.65;1.52;;;22.80;99.90;;;;;;5054333;28;20537;-70
2023/06/30 12:43:55;;;;;;;3.13;1.80;;;23.20;99.90;;;;;;5054743;28;20063;-70
2023/06/30 12:46:21;;;;;;;4.38;1.85;;;23.00;99.90;;;;;;5054401;28;20041;-70